Portada
METAR-TAF:

METAR-TAF

Aeroports :

Shawano, Wisconsin, Estats Units d'Amèrica

latitud: 44-47-14N, longitud: 088-33-36W, altitud: 248 m

Observació

L'informe es va fer fa 14 minuts, a les 01:55 UTC
Vent calma
Temperatura 22°C
Humitat 94%
Pressió 1013 hPa
Visibilitat: 16.1 km
Núvols disperses a una alçada de 200 ft

METAR: KEZS 280155Z AUTO 00000KT 10SM SCT002 22/21 A2991 RMK AO2 T02150207

Hora: 21:09 (02:09 UTC)


TAF: manca

Observacions i pronòstics meteorològics de més de 4000 aeroports (METAR i TAF).

Les estacions disponibles són els punts grocs i vermells al mapa.

Posi el ratolí al punt desitjat per veure el nom de l'estació.

Feu clic per veure les observacions i els pronòstics meteorològics.

Per canviar el mapa: feu clic els botons verds amb una creu de color negre per apropar; al botó verd amb un guió per allunyar la imatge; o en les fletxes verdes per a mapes adjacents.


METAR-TAF: